Time;durP1;ratioP1;P1;durP2;ratioP2;P2;SDS_P1;SDS_P2;PMS_P1;PMS_P2;Temp;Humidity;BMP_temperature;BMP_pressure;BME280_temperature;BME280_humidity;BME280_pressure;Samples;Min_cycle;Max_cycle;Signal;HPM_P1;HPM_P2
2021/01/01 00:01:44;;;;;;;23.83;15.20;;;;;;;;;;5041497;28;20092;-89
2021/01/01 00:04:10;;;;;;;21.70;15.25;;;;;;;;;;5041135;28;20049;-89
2021/01/01 00:06:37;;;;;;;24.83;16.98;;;;;;;;;;5041408;28;20029;-90
2021/01/01 00:09:07;;;;;;;21.63;15.40;;;;;;;;;;5041068;28;20483;-90
2021/01/01 00:11:33;;;;;;;26.73;16.75;;;;;;;;;;5041300;28;20037;-90
2021/01/01 00:13:59;;;;;;;27.67;16.35;;;;;;;;;;5041174;28;20022;-91
2021/01/01 00:16:25;;;;;;;25.58;15.95;;;;;;;;;;5040126;28;20030;-92
2021/01/01 00:18:51;;;;;;;30.10;18.10;;;;;;;;;;5039995;28;20021;-91
2021/01/01 00:21:18;;;;;;;34.63;21.77;;;;;;;;;;5040237;28;20474;-90
2021/01/01 00:23:44;;;;;;;40.30;22.70;;;;;;;;;;5040974;28;20400;-90
2021/01/01 00:26:13;;;;;;;29.65;20.20;;;;;;;;;;5041200;28;20026;-90
2021/01/01 00:28:46;;;;;;;31.52;19.10;;;;;;;;;;5040117;28;20108;-90
2021/01/01 00:31:22;;;;;;;29.20;18.40;;;;;;;;;;5040593;28;20029;-91
2021/01/01 00:33:49;;;;;;;25.45;16.65;;;;;;;;;;5040774;28;20044;-90
2021/01/01 00:36:15;;;;;;;25.23;15.85;;;;;;;;;;5040686;28;20494;-90
2021/01/01 00:38:52;;;;;;;24.33;16.02;;;;;;;;;;5039753;28;20025;-91
2021/01/01 00:41:23;;;;;;;25.17;15.65;;;;;;;;;;5039579;28;20059;-90
2021/01/01 00:43:50;;;;;;;31.98;17.55;;;;;;;;;;5040744;28;20316;-91
2021/01/01 00:46:16;;;;;;;34.15;18.33;;;;;;;;;;5039691;28;20064;-92
2021/01/01 00:48:42;;;;;;;39.15;20.70;;;;;;;;;;5040526;28;20095;-92
2021/01/01 00:51:08;;;;;;;46.95;22.52;;;;;;;;;;5040554;28;20041;-90
2021/01/01 00:53:34;;;;;;;50.55;24.55;;;;;;;;;;5040186;28;20025;-90
2021/01/01 00:56:00;;;;;;;44.60;21.95;;;;;;;;;;5040402;28;20030;-90
2021/01/01 00:58:26;;;;;;;38.55;21.20;;;;;;;;;;5039265;28;20021;-90
2021/01/01 01:00:52;;;;;;;31.77;18.08;;;;;;;;;;5040410;28;20060;-91
2021/01/01 01:03:18;;;;;;;29.60;18.15;;;;;;;;;;5040102;28;20056;-91
2021/01/01 01:05:44;;;;;;;31.50;18.38;;;;;;;;;;5040338;28;20033;-91
2021/01/01 01:08:10;;;;;;;30.70;17.77;;;;;;;;;;5040055;28;20025;-90
2021/01/01 01:10:36;;;;;;;32.55;17.80;;;;;;;;;;5039370;28;20043;-91
2021/01/01 01:13:02;;;;;;;27.33;17.50;;;;;;;;;;5040228;28;20064;-90
2021/01/01 01:15:28;;;;;;;26.65;16.38;;;;;;;;;;5039093;28;20029;-90
2021/01/01 01:17:54;;;;;;;26.70;17.65;;;;;;;;;;5039734;28;20028;-89
2021/01/01 01:20:20;;;;;;;28.23;17.70;;;;;;;;;;5039264;28;20030;-90
2021/01/01 01:22:46;;;;;;;29.05;18.45;;;;;;;;;;5039846;28;20156;-91
2021/01/01 01:25:12;;;;;;;32.42;18.15;;;;;;;;;;5038764;28;20065;-91
2021/01/01 01:27:39;;;;;;;40.28;20.33;;;;;;;;;;5039915;28;20032;-90
2021/01/01 01:30:05;;;;;;;33.83;20.15;;;;;;;;;;5039069;28;20128;-91
2021/01/01 01:32:31;;;;;;;28.95;19.35;;;;;;;;;;5038676;28;20412;-90
2021/01/01 01:34:57;;;;;;;26.98;16.50;;;;;;;;;;5038878;28;20443;-91
2021/01/01 01:37:23;;;;;;;23.27;16.17;;;;;;;;;;5039957;28;20017;-91
2021/01/01 01:39:49;;;;;;;22.60;14.73;;;;;;;;;;5039797;28;20021;-90
2021/01/01 01:42:15;;;;;;;26.58;15.57;;;;;;;;;;5039716;28;20312;-91
2021/01/01 01:44:41;;;;;;;25.45;15.82;;;;;;;;;;5039502;28;20030;-91
2021/01/01 01:47:14;;;;;;;25.20;16.08;;;;;;;;;;5039174;28;20404;-90
2021/01/01 01:49:40;;;;;;;25.15;16.40;;;;;;;;;;5039474;28;20029;-90
2021/01/01 01:52:07;;;;;;;26.52;16.20;;;;;;;;;;5038500;28;20120;-91
2021/01/01 01:54:33;;;;;;;27.75;16.73;;;;;;;;;;5039122;28;20022;-90
2021/01/01 01:56:59;;;;;;;24.30;15.48;;;;;;;;;;5039283;28;20025;-91
2021/01/01 01:59:25;;;;;;;25.52;16.25;;;;;;;;;;5039249;28;20028;-90
2021/01/01 02:01:51;;;;;;;25.60;16.20;;;;;;;;;;5039280;28;20025;-90
2021/01/01 02:04:17;;;;;;;26.67;16.13;;;;;;;;;;5039019;28;20132;-91
2021/01/01 02:06:43;;;;;;;23.65;16.60;;;;;;;;;;5039155;28;20029;-90
2021/01/01 02:09:11;;;;;;;25.70;17.15;;;;;;;;;;5038469;28;20437;-91
2021/01/01 02:11:38;;;;;;;27.55;17.60;;;;;;;;;;5038998;28;20048;-90
2021/01/01 02:14:06;;;;;;;27.67;17.23;;;;;;;;;;5038906;28;20033;-90
2021/01/01 02:16:36;;;;;;;24.65;16.58;;;;;;;;;;5038197;28;20061;-90
2021/01/01 02:19:02;;;;;;;25.65;17.25;;;;;;;;;;5039030;28;20025;-90
2021/01/01 02:21:28;;;;;;;28.80;18.55;;;;;;;;;;5038740;28;20049;-90
2021/01/01 02:23:54;;;;;;;33.80;21.08;;;;;;;;;;5039068;28;20319;-91
2021/01/01 02:26:20;;;;;;;33.97;20.73;;;;;;;;;;5038979;28;20041;-90
2021/01/01 02:28:46;;;;;;;39.92;22.58;;;;;;;;;;5037749;28;20086;-90
2021/01/01 02:31:12;;;;;;;49.70;25.08;;;;;;;;;;5038261;28;20438;-91
2021/01/01 02:33:38;;;;;;;53.58;25.95;;;;;;;;;;5038645;28;20028;-91
2021/01/01 02:36:05;;;;;;;54.53;28.55;;;;;;;;;;5038341;28;20021;-90
2021/01/01 02:38:31;;;;;;;43.42;24.48;;;;;;;;;;5038673;28;20022;-90
2021/01/01 02:40:57;;;;;;;46.10;24.55;;;;;;;;;;5037801;28;20037;-92
2021/01/01 02:43:23;;;;;;;35.63;20.95;;;;;;;;;;5038317;28;20032;-92
2021/01/01 02:45:49;;;;;;;33.03;19.92;;;;;;;;;;5037314;28;20021;-91
2021/01/01 02:48:16;;;;;;;26.95;17.23;;;;;;;;;;5038683;28;20059;-90
2021/01/01 02:50:42;;;;;;;33.53;19.40;;;;;;;;;;5038158;28;20032;-91
2021/01/01 02:53:08;;;;;;;41.80;22.30;;;;;;;;;;5038110;28;20109;-91
2021/01/01 02:55:35;;;;;;;48.72;24.83;;;;;;;;;;5038116;28;20472;-91
2021/01/01 02:58:01;;;;;;;60.40;27.60;;;;;;;;;;5038259;28;20052;-91
2021/01/01 03:00:28;;;;;;;83.90;31.27;;;;;;;;;;5037992;28;20289;-91
2021/01/01 03:02:54;;;;;;;89.10;30.27;;;;;;;;;;5038075;28;20065;-91
2021/01/01 03:05:21;;;;;;;73.95;32.00;;;;;;;;;;5038089;28;20026;-89
2021/01/01 03:07:47;;;;;;;75.32;28.85;;;;;;;;;;5038384;28;20029;-91
2021/01/01 03:10:13;;;;;;;72.57;30.55;;;;;;;;;;5037507;28;20063;-91
2021/01/01 03:12:39;;;;;;;80.05;30.55;;;;;;;;;;5038320;28;20050;-91
2021/01/01 03:15:06;;;;;;;95.15;31.98;;;;;;;;;;5037774;28;20029;-91
2021/01/01 03:17:32;;;;;;;81.32;31.85;;;;;;;;;;5037770;28;20029;-91
2021/01/01 03:19:58;;;;;;;62.08;28.08;;;;;;;;;;5037100;28;20026;-91
2021/01/01 03:22:24;;;;;;;60.85;26.08;;;;;;;;;;5037973;28;20021;-91
2021/01/01 03:24:50;;;;;;;40.00;22.05;;;;;;;;;;5037884;28;20033;-91
2021/01/01 03:27:16;;;;;;;34.17;19.67;;;;;;;;;;5037718;28;20063;-92
2021/01/01 03:29:42;;;;;;;33.58;18.42;;;;;;;;;;5037630;28;20032;-91
2021/01/01 03:32:08;;;;;;;24.45;15.32;;;;;;;;;;5037663;28;20041;-91
2021/01/01 03:34:35;;;;;;;26.88;16.73;;;;;;;;;;5037167;28;20491;-91
2021/01/01 03:37:01;;;;;;;29.35;17.75;;;;;;;;;;5037747;28;19909;-91
2021/01/01 03:39:27;;;;;;;46.13;21.55;;;;;;;;;;5036708;28;20021;-91
2021/01/01 03:41:53;;;;;;;74.88;27.52;;;;;;;;;;5037679;28;20037;-91
2021/01/01 03:44:19;;;;;;;76.50;30.10;;;;;;;;;;5036595;28;20025;-92
2021/01/01 03:46:45;;;;;;;95.55;33.88;;;;;;;;;;5036702;28;20025;-90
2021/01/01 03:49:11;;;;;;;91.70;33.97;;;;;;;;;;5037339;28;20026;-91
2021/01/01 03:51:37;;;;;;;94.30;34.58;;;;;;;;;;5037343;28;20469;-91
2021/01/01 03:54:03;;;;;;;85.90;36.05;;;;;;;;;;5037204;28;20407;-91
2021/01/01 03:56:29;;;;;;;83.80;35.08;;;;;;;;;;5037446;28;20095;-92
2021/01/01 03:58:55;;;;;;;75.03;30.13;;;;;;;;;;5037571;28;20032;-91
2021/01/01 04:01:21;;;;;;;64.00;28.70;;;;;;;;;;5037267;28;20411;-91
2021/01/01 04:03:47;;;;;;;60.30;27.17;;;;;;;;;;5036399;28;20056;-90
2021/01/01 04:06:13;;;;;;;42.97;23.30;;;;;;;;;;5036608;28;20076;-91
2021/01/01 04:08:39;;;;;;;37.00;21.77;;;;;;;;;;5037541;28;20067;-88
2021/01/01 04:11:06;;;;;;;39.17;22.85;;;;;;;;;;5036269;28;20025;-89
2021/01/01 04:13:32;;;;;;;38.38;21.52;;;;;;;;;;5042778;28;20056;-88
2021/01/01 04:15:58;;;;;;;36.78;20.83;;;;;;;;;;5056799;28;20025;-87
2021/01/01 04:18:24;;;;;;;32.38;18.98;;;;;;;;;;5056317;28;20021;-90
2021/01/01 04:20:50;;;;;;;26.83;17.25;;;;;;;;;;5056419;28;20028;-89
2021/01/01 04:23:16;;;;;;;26.42;17.50;;;;;;;;;;5056742;28;20037;-90
2021/01/01 04:25:42;;;;;;;28.25;18.10;;;;;;;;;;5057386;28;20383;-89
2021/01/01 04:28:08;;;;;;;28.48;18.38;;;;;;;;;;5057067;28;20047;-90
2021/01/01 04:30:34;;;;;;;30.15;17.73;;;;;;;;;;5057768;28;20036;-89
2021/01/01 04:33:00;;;;;;;32.25;20.77;;;;;;;;;;5060652;28;20037;-89
2021/01/01 04:35:26;;;;;;;32.42;20.95;;;;;;;;;;5060642;28;20037;-88
2021/01/01 04:37:52;;;;;;;35.90;19.80;;;;;;;;;;5060620;28;20017;-88
2021/01/01 04:40:18;;;;;;;29.85;16.85;;;;;;;;;;5060980;28;20028;-89
2021/01/01 04:42:44;;;;;;;29.85;15.82;;;;;;;;;;5059824;28;20059;-88
2021/01/01 04:45:11;;;;;;;28.95;15.93;;;;;;;;;;5060524;28;20067;-87
2021/01/01 04:47:37;;;;;;;30.23;15.82;;;;;;;;;;5060850;28;20056;-89
2021/01/01 04:50:04;;;;;;;37.60;16.27;;;;;;;;;;5060308;28;20029;-89
2021/01/01 04:52:33;;;;;;;33.85;16.23;;;;;;;;;;5060808;28;20037;-89
2021/01/01 04:55:00;;;;;;;34.10;16.48;;;;;;;;;;5060326;28;20024;-88
2021/01/01 04:57:26;;;;;;;31.65;17.73;;;;;;;;;;5060670;28;20036;-89
2021/01/01 04:59:52;;;;;;;30.40;17.85;;;;;;;;;;5060298;28;20025;-89
2021/01/01 05:02:19;;;;;;;32.05;18.23;;;;;;;;;;5060054;28;20029;-89
2021/01/01 05:04:45;;;;;;;36.60;19.63;;;;;;;;;;5059356;28;20067;-89
2021/01/01 05:07:15;;;;;;;34.80;18.90;;;;;;;;;;5059381;28;20068;-88
2021/01/01 05:09:42;;;;;;;36.85;19.63;;;;;;;;;;5060389;28;20066;-89
2021/01/01 05:12:09;;;;;;;42.33;24.30;;;;;;;;;;5059139;28;20032;-88
2021/01/01 05:14:35;;;;;;;47.03;26.73;;;;;;;;;;5060133;28;20017;-89
2021/01/01 05:17:01;;;;;;;48.85;28.83;;;;;;;;;;5059651;28;20037;-88
2021/01/01 05:19:36;;;;;;;49.92;27.83;;;;;;;;;;5060180;28;20025;-89
2021/01/01 05:22:09;;;;;;;63.22;36.20;;;;;;;;;;5060147;28;20029;-89
2021/01/01 05:24:46;;;;;;;60.47;32.67;;;;;;;;;;5059897;28;20107;-89
2021/01/01 05:27:13;;;;;;;69.32;33.67;;;;;;;;;;5060281;28;20086;-87
2021/01/01 05:29:42;;;;;;;77.18;32.13;;;;;;;;;;5058935;28;20113;-87
2021/01/01 05:32:28;;;;;;;47.47;24.83;;;;;;;;;;5059692;28;20083;-88
2021/01/01 05:34:54;;;;;;;39.80;23.67;;;;;;;;;;5059571;28;20041;-88
2021/01/01 05:37:34;;;;;;;42.90;24.80;;;;;;;;;;5060092;28;20041;-89
2021/01/01 05:40:06;;;;;;;40.50;24.38;;;;;;;;;;5059755;28;20021;-88
2021/01/01 05:42:32;;;;;;;56.58;28.20;;;;;;;;;;5058906;28;20100;-89
2021/01/01 05:45:11;;;;;;;45.55;26.58;;;;;;;;;;5058532;28;20031;-89
2021/01/01 05:47:37;;;;;;;44.70;24.52;;;;;;;;;;5059574;28;20075;-89
2021/01/01 05:50:03;;;;;;;41.50;21.58;;;;;;;;;;5059588;28;20108;-89
2021/01/01 05:52:29;;;;;;;36.80;19.00;;;;;;;;;;5059285;28;20063;-90
2021/01/01 05:54:59;;;;;;;37.53;18.73;;;;;;;;;;5059494;28;20058;-89
2021/01/01 05:57:33;;;;;;;55.10;26.17;;;;;;;;;;5059364;28;20029;-89
2021/01/01 06:00:00;;;;;;;87.72;40.45;;;;;;;;;;5059554;28;20104;-89
2021/01/01 06:02:30;;;;;;;103.15;43.38;;;;;;;;;;5057991;28;20171;-91
2021/01/01 06:04:56;;;;;;;80.22;34.60;;;;;;;;;;5059006;28;20029;-91
2021/01/01 06:07:23;;;;;;;64.53;29.77;;;;;;;;;;5059310;28;20049;-91
2021/01/01 06:09:52;;;;;;;72.00;27.75;;;;;;;;;;5058999;28;20021;-90
2021/01/01 06:12:26;;;;;;;104.32;37.40;;;;;;;;;;5059043;28;20315;-91
2021/01/01 06:20:51;;;;;;;105.85;34.05;;;;;;;;;;5059098;28;20024;-91
2021/01/01 06:23:20;;;;;;;67.55;26.88;;;;;;;;;;5057912;28;20021;-92
2021/01/01 06:25:46;;;;;;;52.28;21.77;;;;;;;;;;5057747;28;20074;-90
2021/01/01 06:28:14;;;;;;;39.13;19.85;;;;;;;;;;5058513;28;20021;-89
2021/01/01 06:30:40;;;;;;;50.67;22.83;;;;;;;;;;5058582;28;20029;-89
2021/01/01 06:33:08;;;;;;;50.00;23.52;;;;;;;;;;5058372;28;20079;-88
2021/01/01 06:35:41;;;;;;;101.95;34.15;;;;;;;;;;5058727;28;20067;-88
2021/01/01 06:38:07;;;;;;;157.70;50.40;;;;;;;;;;5058492;28;20027;-88
2021/01/01 06:40:35;;;;;;;108.82;40.47;;;;;;;;;;5058208;28;20033;-90
2021/01/01 06:43:02;;;;;;;71.45;34.15;;;;;;;;;;5058008;28;20021;-95
2021/01/01 06:45:35;;;;;;;71.38;34.97;;;;;;;;;;5057605;28;20075;-94
2021/01/01 06:48:02;;;;;;;75.47;36.22;;;;;;;;;;5058252;28;20029;-95
2021/01/01 06:50:29;;;;;;;87.53;38.17;;;;;;;;;;5058617;28;20463;-90
2021/01/01 06:53:06;;;;;;;65.60;30.85;;;;;;;;;;5057210;28;20064;-92
2021/01/01 06:55:33;;;;;;;69.20;31.75;;;;;;;;;;5058063;28;20029;-90
2021/01/01 06:57:59;;;;;;;67.65;31.50;;;;;;;;;;5058020;28;20465;-91
2021/01/01 07:00:43;;;;;;;56.78;30.60;;;;;;;;;;5058168;28;20029;-91
2021/01/01 07:03:24;;;;;;;51.53;28.20;;;;;;;;;;5057748;28;20049;-90
2021/01/01 07:05:51;;;;;;;57.08;33.33;;;;;;;;;;5057225;28;20119;-90
2021/01/01 07:08:35;;;;;;;55.00;29.20;;;;;;;;;;5058021;28;20121;-91
2021/01/01 07:11:01;;;;;;;60.13;33.45;;;;;;;;;;5057634;28;20023;-91
2021/01/01 07:13:39;;;;;;;71.13;32.38;;;;;;;;;;5058132;28;20033;-91
2021/01/01 07:16:05;;;;;;;74.88;37.08;;;;;;;;;;5057639;28;20025;-91
2021/01/01 07:18:32;;;;;;;98.93;42.38;;;;;;;;;;5058022;28;20028;-91
2021/01/01 07:21:01;;;;;;;99.30;42.13;;;;;;;;;;5058007;28;20037;-92
2021/01/01 07:23:30;;;;;;;97.35;40.75;;;;;;;;;;5057857;28;20032;-91
2021/01/01 07:25:57;;;;;;;116.47;45.83;;;;;;;;;;5056860;28;20083;-91
2021/01/01 07:28:23;;;;;;;79.15;36.50;;;;;;;;;;5057732;28;20060;-90
2021/01/01 07:30:49;;;;;;;58.78;31.40;;;;;;;;;;5057827;28;20024;-90
2021/01/01 07:33:32;;;;;;;61.63;32.60;;;;;;;;;;5056540;28;20036;-91
2021/01/01 07:35:58;;;;;;;61.45;33.15;;;;;;;;;;5057576;28;20486;-90
2021/01/01 07:38:24;;;;;;;61.75;33.03;;;;;;;;;;5056527;28;20136;-90
2021/01/01 07:40:51;;;;;;;66.65;36.20;;;;;;;;;;5057831;28;20306;-90
2021/01/01 07:43:17;;;;;;;66.55;34.97;;;;;;;;;;5056332;28;20514;-90
2021/01/01 07:45:43;;;;;;;83.68;39.80;;;;;;;;;;5057487;28;20399;-90
2021/01/01 07:48:09;;;;;;;77.38;39.83;;;;;;;;;;5039714;28;20041;-90
2021/01/01 07:50:36;;;;;;;73.03;38.05;;;;;;;;;;5056662;28;20029;-90
2021/01/01 07:53:03;;;;;;;68.30;35.15;;;;;;;;;;5056677;28;20021;-91
2021/01/01 07:55:29;;;;;;;62.38;34.05;;;;;;;;;;5057490;28;20048;-90
2021/01/01 07:58:00;;;;;;;66.53;35.88;;;;;;;;;;5057570;28;20059;-90
2021/01/01 08:00:29;;;;;;;64.50;35.20;;;;;;;;;;5057379;28;20025;-90
2021/01/01 08:02:55;;;;;;;126.07;62.40;;;;;;;;;;5055897;28;20052;-91
2021/01/01 08:05:22;;;;;;;76.30;43.25;;;;;;;;;;5057719;28;20071;-87
2021/01/01 08:07:48;;;;;;;58.72;36.83;;;;;;;;;;5061240;28;20061;-88
2021/01/01 08:10:14;;;;;;;60.53;33.67;;;;;;;;;;5061472;28;20025;-89
2021/01/01 08:12:53;;;;;;;56.97;33.80;;;;;;;;;;5061133;28;20036;-87
2021/01/01 08:15:43;;;;;;;62.53;36.60;;;;;;;;;;5061494;28;20036;-88
2021/01/01 08:18:09;;;;;;;79.32;41.70;;;;;;;;;;5061464;28;20028;-88
2021/01/01 08:20:35;;;;;;;72.20;37.60;;;;;;;;;;5061392;28;20330;-88
2021/01/01 08:23:04;;;;;;;74.00;41.92;;;;;;;;;;5061395;28;20024;-89
2021/01/01 08:25:31;;;;;;;73.72;40.78;;;;;;;;;;5059998;28;20431;-88
2021/01/01 08:27:57;;;;;;;90.78;44.60;;;;;;;;;;5060097;28;20029;-92
2021/01/01 08:30:23;;;;;;;123.38;50.72;;;;;;;;;;5061062;28;20406;-94
2021/01/01 08:33:08;;;;;;;162.20;69.40;;;;;;;;;;5060894;28;20036;-94
2021/01/01 08:35:35;;;;;;;108.90;49.30;;;;;;;;;;5061008;28;20036;-94
2021/01/01 08:38:21;;;;;;;85.38;41.38;;;;;;;;;;5060869;28;20017;-93
2021/01/01 08:40:58;;;;;;;77.13;42.60;;;;;;;;;;5059742;28;20132;-90
2021/01/01 08:43:24;;;;;;;74.95;42.72;;;;;;;;;;5060922;28;20075;-92
2021/01/01 08:45:51;;;;;;;75.75;44.47;;;;;;;;;;5059586;28;20061;-91
2021/01/01 08:48:17;;;;;;;81.72;46.42;;;;;;;;;;5059719;28;20028;-91
2021/01/01 08:50:44;;;;;;;73.45;40.17;;;;;;;;;;5060831;28;20025;-90
2021/01/01 08:53:11;;;;;;;68.90;40.50;;;;;;;;;;5060656;28;20033;-89
2021/01/01 08:55:37;;;;;;;65.22;38.33;;;;;;;;;;5060590;28;20029;-89
2021/01/01 08:58:07;;;;;;;87.45;45.97;;;;;;;;;;5060806;28;20031;-89
2021/01/01 09:00:33;;;;;;;71.88;41.38;;;;;;;;;;5060805;28;20075;-90
2021/01/01 09:06:17;;;;;;;73.43;45.05;;;;;;;;;;5055635;28;20036;-88
2021/01/01 09:08:44;;;;;;;65.32;39.13;;;;;;;;;;5060375;28;20120;-88
2021/01/01 09:11:20;;;;;;;70.45;39.00;;;;;;;;;;5060109;28;20403;-88
2021/01/01 09:13:57;;;;;;;72.18;42.72;;;;;;;;;;5060016;28;20411;-90
2021/01/01 09:16:42;;;;;;;72.10;39.17;;;;;;;;;;5058938;28;20358;-87
2021/01/01 09:19:11;;;;;;;72.10;39.58;;;;;;;;;;5058332;28;20020;-89
2021/01/01 09:21:38;;;;;;;66.28;38.08;;;;;;;;;;5059007;28;20350;-89
2021/01/01 09:24:04;;;;;;;69.60;39.13;;;;;;;;;;5059216;28;20017;-89
2021/01/01 09:26:30;;;;;;;76.70;40.25;;;;;;;;;;5059335;28;20031;-90
2021/01/01 09:29:06;;;;;;;78.35;41.10;;;;;;;;;;5058833;28;20060;-89
2021/01/01 09:31:33;;;;;;;69.03;36.45;;;;;;;;;;5059711;28;20438;-90
2021/01/01 09:34:00;;;;;;;82.53;42.20;;;;;;;;;;5058788;28;20124;-90
2021/01/01 09:36:26;;;;;;;82.57;40.75;;;;;;;;;;5059581;28;20028;-90
2021/01/01 09:38:52;;;;;;;84.25;43.33;;;;;;;;;;5059164;28;20044;-91
2021/01/01 09:41:19;;;;;;;92.78;44.78;;;;;;;;;;5060109;28;20017;-89
2021/01/01 09:43:45;;;;;;;110.05;47.22;;;;;;;;;;5059571;28;20100;-91
2021/01/01 09:46:11;;;;;;;89.93;42.45;;;;;;;;;;5059836;28;20070;-91
2021/01/01 09:48:37;;;;;;;103.97;47.63;;;;;;;;;;5059566;28;20036;-89
2021/01/01 09:51:03;;;;;;;94.57;46.10;;;;;;;;;;5059654;28;20033;-89
2021/01/01 09:53:29;;;;;;;102.25;47.00;;;;;;;;;;5058951;28;20055;-90
2021/01/01 09:55:55;;;;;;;97.05;46.08;;;;;;;;;;5058606;28;20029;-90
2021/01/01 09:58:21;;;;;;;98.82;46.17;;;;;;;;;;5042098;28;20051;-90
2021/01/01 10:00:47;;;;;;;92.55;45.50;;;;;;;;;;5059147;28;20048;-90
2021/01/01 10:03:14;;;;;;;89.00;42.92;;;;;;;;;;5058298;28;20041;-89
2021/01/01 10:05:40;;;;;;;76.75;40.15;;;;;;;;;;5058317;28;20044;-89
2021/01/01 10:08:06;;;;;;;79.97;44.13;;;;;;;;;;5058318;28;20040;-86
2021/01/01 10:10:32;;;;;;;83.65;42.75;;;;;;;;;;5059130;28;20073;-87
2021/01/01 10:12:59;;;;;;;82.35;43.53;;;;;;;;;;5057901;28;20033;-87
2021/01/01 10:15:25;;;;;;;78.88;40.67;;;;;;;;;;5057806;28;20068;-86
2021/01/01 10:18:13;;;;;;;81.22;42.47;;;;;;;;;;5057879;28;20036;-86
2021/01/01 10:20:39;;;;;;;82.47;41.22;;;;;;;;;;5058749;28;20025;-86
2021/01/01 10:23:05;;;;;;;71.85;36.85;;;;;;;;;;5058770;28;20402;-87
2021/01/01 10:25:31;;;;;;;69.75;38.15;;;;;;;;;;5057832;28;20051;-87
2021/01/01 10:27:57;;;;;;;76.82;39.30;;;;;;;;;;5057235;28;20186;-87
2021/01/01 10:30:23;;;;;;;72.63;37.05;;;;;;;;;;5058135;28;20040;-87
2021/01/01 10:33:08;;;;;;;72.28;36.97;;;;;;;;;;5057627;28;20048;-87
2021/01/01 10:35:34;;;;;;;65.85;37.20;;;;;;;;;;5058518;28;20025;-86
2021/01/01 10:38:00;;;;;;;63.58;33.13;;;;;;;;;;5057553;28;20083;-86
2021/01/01 10:40:26;;;;;;;57.75;31.75;;;;;;;;;;5058713;28;20021;-87
2021/01/01 10:42:52;;;;;;;58.45;33.25;;;;;;;;;;5057394;28;20025;-86
2021/01/01 10:45:19;;;;;;;51.83;28.95;;;;;;;;;;5043738;28;20423;-87
2021/01/01 10:47:45;;;;;;;52.67;28.50;;;;;;;;;;5037099;28;20060;-88
2021/01/01 10:50:11;;;;;;;48.22;26.67;;;;;;;;;;5038599;28;20029;-87
2021/01/01 10:52:37;;;;;;;42.85;23.48;;;;;;;;;;5038218;28;20438;-88
2021/01/01 10:55:03;;;;;;;35.20;21.45;;;;;;;;;;5037353;28;20315;-86
2021/01/01 10:57:29;;;;;;;37.80;20.10;;;;;;;;;;5038503;28;20033;-91
2021/01/01 10:59:55;;;;;;;35.60;20.52;;;;;;;;;;5037434;28;20026;-88
2021/01/01 11:02:22;;;;;;;46.15;24.58;;;;;;;;;;5038001;28;20057;-88
2021/01/01 11:04:48;;;;;;;38.60;21.23;;;;;;;;;;5038066;28;20427;-88
2021/01/01 11:07:14;;;;;;;33.90;21.55;;;;;;;;;;5038374;28;20033;-87
2021/01/01 11:09:41;;;;;;;37.25;19.50;;;;;;;;;;5038168;28;20103;-88
2021/01/01 11:12:08;;;;;;;34.13;20.75;;;;;;;;;;5037958;28;20043;-90
2021/01/01 12:24:47;;;;;;;;;;;;;;;;;;5038161;28;20038;-90
2021/01/01 12:27:15;;;;;;;73.22;30.10;;;;;;;;;;5036285;28;19988;-89
2021/01/01 12:29:41;;;;;;;71.85;31.73;;;;;;;;;;5037314;28;20041;-89
2021/01/01 12:32:07;;;;;;;72.45;31.77;;;;;;;;;;5036148;28;20029;-88
2021/01/01 12:34:33;;;;;;;62.28;28.77;;;;;;;;;;5037506;28;20288;-89
2021/01/01 12:36:59;;;;;;;47.95;23.83;;;;;;;;;;5037339;28;20041;-89
2021/01/01 12:39:25;;;;;;;50.97;24.50;;;;;;;;;;5036305;28;20021;-90
2021/01/01 12:41:51;;;;;;;66.35;31.45;;;;;;;;;;5036988;28;20056;-89
2021/01/01 12:44:17;;;;;;;70.40;34.67;;;;;;;;;;5037070;28;20048;-90
2021/01/01 12:52:52;;;;;;;52.55;27.77;;;;;;;;;;5039898;28;20072;-89
2021/01/01 12:55:18;;;;;;;48.38;24.73;;;;;;;;;;5039290;28;20029;-90
2021/01/01 12:57:44;;;;;;;43.17;22.98;;;;;;;;;;5039570;28;20040;-89
2021/01/01 13:00:10;;;;;;;54.00;28.17;;;;;;;;;;5040723;28;20037;-88
2021/01/01 13:02:36;;;;;;;49.78;23.55;;;;;;;;;;5039644;28;20026;-88
2021/01/01 13:05:02;;;;;;;42.70;22.27;;;;;;;;;;5040340;28;20030;-89
2021/01/01 13:07:28;;;;;;;35.30;18.55;;;;;;;;;;5053829;28;20045;-89
2021/01/01 13:09:54;;;;;;;40.35;21.23;;;;;;;;;;5060219;28;20021;-89
2021/01/01 13:12:20;;;;;;;42.33;22.33;;;;;;;;;;5059116;28;20116;-89
2021/01/01 13:14:46;;;;;;;31.85;18.75;;;;;;;;;;5059175;28;20206;-89
2021/01/01 13:17:13;;;;;;;36.78;19.63;;;;;;;;;;5059760;28;20025;-90
2021/01/01 13:19:39;;;;;;;30.75;16.88;;;;;;;;;;5059153;28;20029;-90
2021/01/01 13:22:05;;;;;;;37.75;19.38;;;;;;;;;;5060038;28;20104;-89
2021/01/01 13:24:31;;;;;;;41.10;20.73;;;;;;;;;;5059105;28;20032;-89
2021/01/01 13:26:57;;;;;;;31.85;17.00;;;;;;;;;;5059816;28;20029;-90
2021/01/01 13:29:23;;;;;;;27.48;16.15;;;;;;;;;;5060024;28;20056;-90
2021/01/01 13:35:12;;;;;;;38.42;20.10;;;;;;;;;;5060053;28;20102;-89
2021/01/01 13:37:38;;;;;;;46.78;21.98;;;;;;;;;;5059708;28;20021;-89
2021/01/01 13:40:05;;;;;;;30.42;16.50;;;;;;;;;;5059642;28;20431;-89
2021/01/01 13:42:31;;;;;;;28.60;17.17;;;;;;;;;;5059936;28;20402;-89
2021/01/01 13:44:58;;;;;;;25.80;14.57;;;;;;;;;;5059526;28;20021;-90
2021/01/01 13:50:27;;;;;;;34.83;17.05;;;;;;;;;;5059753;28;20052;-87
2021/01/01 13:52:53;;;;;;;37.00;19.15;;;;;;;;;;5058519;28;20021;-93
2021/01/01 13:55:19;;;;;;;36.08;17.65;;;;;;;;;;5059746;28;20029;-89
2021/01/01 13:57:45;;;;;;;34.25;17.55;;;;;;;;;;5059500;28;20024;-88
2021/01/01 14:00:12;;;;;;;43.28;20.40;;;;;;;;;;5059166;28;20021;-88
2021/01/01 14:02:38;;;;;;;22.45;12.85;;;;;;;;;;5059037;28;20029;-88
2021/01/01 14:05:04;;;;;;;46.78;22.40;;;;;;;;;;5057471;28;20061;-89
2021/01/01 14:07:30;;;;;;;61.53;27.90;;;;;;;;;;5057665;28;20049;-88
2021/01/01 14:09:56;;;;;;;56.08;25.73;;;;;;;;;;5058771;28;20055;-88
2021/01/01 14:12:22;;;;;;;52.10;26.88;;;;;;;;;;5058324;28;20323;-87
2021/01/01 14:14:48;;;;;;;50.53;28.15;;;;;;;;;;5059302;28;20095;-87
2021/01/01 14:20:18;;;;;;;55.83;33.25;;;;;;;;;;5058971;28;20445;-88
2021/01/01 14:22:44;;;;;;;57.08;31.63;;;;;;;;;;5057930;28;20021;-87
2021/01/01 14:25:11;;;;;;;50.53;28.13;;;;;;;;;;5058996;28;20028;-87
2021/01/01 14:27:37;;;;;;;57.42;29.13;;;;;;;;;;5057707;28;20112;-87
2021/01/01 14:30:03;;;;;;;42.15;24.45;;;;;;;;;;5058638;28;20028;-86
2021/01/01 14:32:48;;;;;;;43.85;27.13;;;;;;;;;;5057431;28;20041;-88
2021/01/01 14:35:15;;;;;;;35.22;22.52;;;;;;;;;;5058564;28;20036;-87
2021/01/01 14:37:42;;;;;;;29.63;17.98;;;;;;;;;;5058850;28;20025;-87
2021/01/01 14:40:09;;;;;;;27.17;16.23;;;;;;;;;;5058403;28;20017;-87
2021/01/01 14:42:36;;;;;;;24.88;15.18;;;;;;;;;;5058755;28;20464;-87
2021/01/01 14:45:02;;;;;;;30.02;16.95;;;;;;;;;;5058383;28;20098;-87
2021/01/01 14:48:05;;;;;;;37.03;19.35;;;;;;;;;;5057898;28;20025;-87
2021/01/01 14:50:31;;;;;;;;;;;;;;;;;;5058552;28;20028;-87
2021/01/01 14:52:57;;;;;;;31.67;17.92;;;;;;;;;;5058551;28;19906;-87
2021/01/01 14:55:23;;;;;;;29.58;18.42;;;;;;;;;;5049867;28;20025;-87
2021/01/01 14:57:49;;;;;;;43.17;24.50;;;;;;;;;;5047806;28;20308;-86
2021/01/01 15:00:15;;;;;;;47.55;28.40;;;;;;;;;;5046550;28;20012;-86
2021/01/01 15:02:41;;;;;;;53.10;31.48;;;;;;;;;;5046315;28;20025;-87
2021/01/01 15:05:08;;;;;;;63.38;36.78;;;;;;;;;;5037935;28;20029;-86
2021/01/01 15:07:34;;;;;;;94.20;44.38;;;;;;;;;;5037001;28;20049;-86
2021/01/01 15:10:00;;;;;;;170.50;66.68;;;;;;;;;;5050513;28;20033;-87
2021/01/01 15:12:27;;;;;;;118.32;54.85;;;;;;;;;;5052160;28;20021;-87
2021/01/01 15:14:53;;;;;;;73.40;41.92;;;;;;;;;;5056603;28;20064;-87
2021/01/01 15:17:19;;;;;;;65.85;38.58;;;;;;;;;;5056607;28;20449;-86
2021/01/01 15:19:45;;;;;;;70.90;40.03;;;;;;;;;;5056865;28;20304;-86
2021/01/01 15:22:18;;;;;;;72.18;40.95;;;;;;;;;;5056804;28;20021;-86
2021/01/01 15:24:44;;;;;;;;;;;;;;;;;;5058261;28;20025;-87
2021/01/01 15:27:10;;;;;;;81.10;46.80;;;;;;;;;;5057744;28;20192;-85
2021/01/01 15:29:36;;;;;;;116.70;62.22;;;;;;;;;;5057571;28;20036;-86
2021/01/01 15:32:02;;;;;;;132.05;68.75;;;;;;;;;;5056538;28;20036;-89
2021/01/01 15:34:28;;;;;;;110.25;60.42;;;;;;;;;;5056593;28;20028;-86
2021/01/01 15:36:54;;;;;;;112.70;58.42;;;;;;;;;;5057709;28;20078;-86
2021/01/01 15:39:21;;;;;;;107.57;60.03;;;;;;;;;;5057299;28;20021;-86
2021/01/01 15:41:47;;;;;;;101.78;57.58;;;;;;;;;;5057588;28;20036;-85
2021/01/01 15:44:14;;;;;;;101.60;59.15;;;;;;;;;;5057156;28;20028;-85
2021/01/01 15:46:40;;;;;;;113.10;67.93;;;;;;;;;;5056190;28;20029;-86
2021/01/01 15:49:07;;;;;;;200.52;107.15;;;;;;;;;;5056043;28;20033;-86
2021/01/01 15:51:33;;;;;;;220.30;119.85;;;;;;;;;;5057346;28;20067;-86
2021/01/01 15:53:59;;;;;;;238.10;124.07;;;;;;;;;;5057400;28;20432;-86